createdAt,value
2023-04-10T00:00:33.642Z,4.35
2023-04-10T00:02:05.665Z,4.20
2023-04-10T00:03:37.788Z,4.13
2023-04-10T00:05:09.791Z,4.22
2023-04-10T00:06:41.991Z,4.40
2023-04-10T00:08:13.648Z,4.15
2023-04-10T00:09:45.656Z,3.95
2023-04-10T00:11:17.245Z,3.90
2023-04-10T00:12:48.964Z,3.78
2023-04-10T00:14:23.228Z,3.72
2023-04-10T00:15:54.912Z,3.67
2023-04-10T00:17:26.448Z,3.69
2023-04-10T00:19:00.627Z,3.72
2023-04-10T00:20:32.158Z,3.71
2023-04-10T00:22:04.905Z,3.64
2023-04-10T00:23:37.318Z,3.71
2023-04-10T00:25:09.193Z,3.66
2023-04-10T00:26:40.798Z,3.42
2023-04-10T00:28:12.431Z,3.38
2023-04-10T00:29:44.207Z,3.56
2023-04-10T00:31:15.931Z,3.37
2023-04-10T00:32:47.920Z,3.31
2023-04-10T00:34:19.580Z,3.25
2023-04-10T00:35:51.223Z,3.18
2023-04-10T00:37:22.841Z,3.07
2023-04-10T00:38:54.547Z,3.00
2023-04-10T00:40:26.516Z,2.97
2023-04-10T00:41:58.217Z,2.92
2023-04-10T00:43:29.781Z,2.97
2023-04-10T00:45:01.399Z,2.88
2023-04-10T00:46:33.224Z,2.90
2023-04-10T00:48:05.074Z,2.87
2023-04-10T00:49:36.750Z,3.09
2023-04-10T00:51:08.706Z,3.04
2023-04-10T00:52:40.477Z,2.94
2023-04-10T00:54:12.319Z,2.89
2023-04-10T00:55:45.353Z,3.09
2023-04-10T00:57:17.631Z,2.96
2023-04-10T00:58:49.269Z,2.98
2023-04-10T01:00:20.930Z,2.97
2023-04-10T01:01:53.096Z,2.93
2023-04-10T01:03:25.325Z,3.03
2023-04-10T01:04:57.097Z,3.07
2023-04-10T01:06:46.836Z,2.89
2023-04-10T01:08:27.325Z,2.72
2023-04-10T01:10:11.353Z,2.63
2023-04-10T01:12:04.606Z,2.60
2023-04-10T01:13:46.872Z,2.64
2023-04-10T01:15:21.142Z,2.83
2023-04-10T01:17:08.121Z,2.66
2023-04-10T01:18:52.999Z,2.64
2023-04-10T01:20:32.550Z,2.83
2023-04-10T01:22:05.221Z,2.66
2023-04-10T01:23:55.812Z,2.59
2023-04-10T01:25:48.875Z,2.54
2023-04-10T01:28:07.246Z,2.60
2023-04-10T01:29:44.676Z,2.54
2023-04-10T01:31:21.920Z,2.55
2023-04-10T01:32:57.142Z,2.74
2023-04-10T01:34:43.552Z,2.72
2023-04-10T01:36:22.908Z,2.50
2023-04-10T01:37:58.504Z,2.42
2023-04-10T01:39:36.292Z,2.63
2023-04-10T01:41:09.121Z,2.53
2023-04-10T01:43:01.757Z,2.55
2023-04-10T01:44:47.325Z,2.32
2023-04-10T01:46:23.845Z,2.37
2023-04-10T01:47:56.597Z,2.20
2023-04-10T01:49:30.435Z,2.12
2023-04-10T01:51:09.790Z,2.11
2023-04-10T01:52:42.820Z,2.03
2023-04-10T01:54:22.762Z,2.03
2023-04-10T01:55:54.912Z,1.96
2023-04-10T01:57:27.127Z,1.87
2023-04-10T01:59:03.738Z,1.87
2023-04-10T02:00:40.179Z,1.89
2023-04-10T02:02:12.311Z,1.99
2023-04-10T02:03:44.216Z,1.90
2023-04-10T02:05:16.845Z,1.86
2023-04-10T02:07:02.642Z,1.83
2023-04-10T02:08:46.687Z,2.02
2023-04-10T02:10:24.728Z,1.92
2023-04-10T02:12:05.905Z,1.95
2023-04-10T02:13:40.793Z,1.92
2023-04-10T02:15:12.970Z,2.14
2023-04-10T02:16:45.052Z,1.96
2023-04-10T02:18:18.906Z,1.88
2023-04-10T02:19:53.305Z,1.94
2023-04-10T02:21:24.968Z,1.88
2023-04-10T02:22:58.165Z,1.87
2023-04-10T02:24:31.081Z,1.82
2023-04-10T02:26:09.114Z,1.88
2023-04-10T02:27:40.769Z,2.10
2023-04-10T02:29:12.714Z,1.98
2023-04-10T02:30:44.332Z,1.81
2023-04-10T02:32:17.722Z,1.69
2023-04-10T02:33:51.353Z,1.67
2023-04-10T02:35:23.249Z,1.63
2023-04-10T02:36:54.908Z,1.62
2023-04-10T02:38:27.578Z,1.68
2023-04-10T02:39:59.625Z,1.69
2023-04-10T02:41:32.449Z,1.71
2023-04-10T02:43:08.159Z,1.82
2023-04-10T02:44:39.935Z,1.80
2023-04-10T02:46:11.868Z,1.66
2023-04-10T02:47:44.760Z,1.70
2023-04-10T02:49:16.446Z,1.68
2023-04-10T02:50:49.251Z,1.51
2023-04-10T02:52:20.878Z,1.62
2023-04-10T02:53:53.311Z,1.53
2023-04-10T02:55:33.722Z,1.70
2023-04-10T02:57:05.387Z,1.70
2023-04-10T02:58:37.496Z,1.63
2023-04-10T03:00:10.896Z,1.50
2023-04-10T03:02:01.420Z,1.27
2023-04-10T03:03:36.185Z,1.23
2023-04-10T03:05:08.989Z,1.11
2023-04-10T03:06:40.772Z,1.16
2023-04-10T03:08:16.221Z,1.24
2023-04-10T03:09:47.809Z,1.25
2023-04-10T03:11:20.560Z,1.55
2023-04-10T03:12:52.530Z,1.47
2023-04-10T03:14:24.402Z,1.31
2023-04-10T03:15:56.110Z,1.19
2023-04-10T03:17:27.966Z,1.17
2023-04-10T03:19:03.587Z,1.36
2023-04-10T03:20:38.716Z,1.23
2023-04-10T03:22:11.184Z,1.14
2023-04-10T03:23:45.283Z,1.14
2023-04-10T03:25:17.164Z,1.06
2023-04-10T03:26:48.694Z,1.00
2023-04-10T03:28:21.330Z,1.00
2023-04-10T03:29:52.924Z,1.05
2023-04-10T03:31:24.925Z,0.97
2023-04-10T03:32:59.692Z,0.90
2023-04-10T03:34:31.390Z,0.90
2023-04-10T03:36:04.342Z,0.95
2023-04-10T03:37:38.279Z,0.91
2023-04-10T03:39:09.887Z,0.90
2023-04-10T03:40:41.567Z,1.01
2023-04-10T03:42:15.269Z,0.97
2023-04-10T03:43:46.912Z,1.04
2023-04-10T03:45:18.607Z,1.06
2023-04-10T03:46:50.482Z,1.08
2023-04-10T03:48:22.380Z,0.97
2023-04-10T03:49:53.969Z,0.99
2023-04-10T03:51:26.693Z,0.89
2023-04-10T03:52:58.346Z,0.92
2023-04-10T03:54:31.001Z,0.92
2023-04-10T03:56:03.719Z,0.98
2023-04-10T03:57:35.470Z,0.93
2023-04-10T03:59:09.087Z,0.92
2023-04-10T04:00:45.620Z,1.02
2023-04-10T04:02:26.246Z,0.89
2023-04-10T04:04:00.137Z,1.01
2023-04-10T04:05:52.107Z,0.88
2023-04-10T04:07:31.417Z,0.81
2023-04-10T04:09:16.718Z,0.82
2023-04-10T04:10:56.126Z,0.77
2023-04-10T04:12:41.031Z,0.73
2023-04-10T04:14:23.923Z,0.89
2023-04-10T04:16:06.031Z,0.87
2023-04-10T04:17:51.933Z,0.82
2023-04-10T04:19:45.724Z,0.86
2023-04-10T04:21:26.672Z,1.21
2023-04-10T04:23:06.807Z,1.18
2023-04-10T04:24:56.965Z,0.91
2023-04-10T04:26:47.451Z,0.86
2023-04-10T04:28:47.307Z,0.82
2023-04-10T04:30:24.879Z,0.84
2023-04-10T04:32:20.715Z,0.87
2023-04-10T04:34:02.606Z,0.83
2023-04-10T04:35:50.826Z,0.83
2023-04-10T04:37:39.070Z,0.81
2023-04-10T04:39:36.860Z,0.87
2023-04-10T04:41:22.107Z,0.88
2023-04-10T04:43:12.379Z,0.88
2023-04-10T04:45:01.719Z,0.86
2023-04-10T04:46:39.175Z,0.96
2023-04-10T04:48:46.090Z,1.13
2023-04-10T04:50:27.043Z,1.00
2023-04-10T04:52:09.262Z,1.00
2023-04-10T04:53:45.374Z,0.97
2023-04-10T04:55:37.393Z,1.02
2023-04-10T04:57:27.590Z,1.04
2023-04-10T04:59:22.031Z,1.04
2023-04-10T05:01:22.981Z,1.04
2023-04-10T05:03:07.854Z,1.18
2023-04-10T05:05:15.838Z,1.24
2023-04-10T05:06:56.553Z,1.25
2023-04-10T05:08:40.056Z,1.38
2023-04-10T05:10:26.486Z,1.37
2023-04-10T05:12:14.581Z,1.36
2023-04-10T05:13:48.859Z,1.35
2023-04-10T05:15:37.284Z,1.50
2023-04-10T05:17:16.873Z,1.58
2023-04-10T05:18:56.157Z,1.48
2023-04-10T05:20:47.261Z,1.47
2023-04-10T05:22:41.751Z,1.24
2023-04-10T05:24:41.050Z,1.10
2023-04-10T05:26:28.273Z,1.06
2023-04-10T05:28:13.434Z,1.17
2023-04-10T05:30:04.653Z,1.40
2023-04-10T05:32:05.822Z,1.45
2023-04-10T05:33:48.620Z,1.40
2023-04-10T05:35:28.863Z,1.55
2023-04-10T05:37:04.927Z,1.54
2023-04-10T05:38:47.616Z,1.60
2023-04-10T05:40:38.097Z,1.44
2023-04-10T05:42:35.913Z,1.53
2023-04-10T05:44:31.068Z,1.64
2023-04-10T05:46:11.615Z,1.67
2023-04-10T05:47:53.552Z,1.72
2023-04-10T05:49:37.162Z,2.00
2023-04-10T05:51:20.841Z,2.09
2023-04-10T05:53:21.685Z,2.15
2023-04-10T05:55:10.042Z,2.23
2023-04-10T05:56:47.511Z,2.35
2023-04-10T05:58:37.681Z,2.31
2023-04-10T06:00:12.747Z,2.46
2023-04-10T06:02:06.895Z,2.60
2023-04-10T06:03:38.638Z,2.66
2023-04-10T06:05:11.361Z,2.51
2023-04-10T06:06:44.597Z,2.49
2023-04-10T06:08:16.185Z,2.62
2023-04-10T06:09:47.802Z,2.78
2023-04-10T06:11:19.399Z,2.78
2023-04-10T06:12:56.236Z,2.95
2023-04-10T06:14:30.314Z,3.02
2023-04-10T06:16:02.804Z,2.93
2023-04-10T06:17:41.250Z,3.02
2023-04-10T06:19:12.875Z,3.15
2023-04-10T06:20:44.661Z,3.17
2023-04-10T06:22:16.249Z,3.30
2023-04-10T06:23:49.278Z,3.46
2023-04-10T06:25:23.369Z,3.57
2023-04-10T06:26:56.860Z,3.63
2023-04-10T06:28:29.221Z,3.78
2023-04-10T06:30:06.111Z,3.95
2023-04-10T06:31:37.852Z,4.17
2023-04-10T06:33:09.689Z,4.33
2023-04-10T06:34:46.465Z,4.79
2023-04-10T06:36:18.252Z,6.36
2023-04-10T06:37:53.822Z,7.87
2023-04-10T06:39:25.460Z,9.25
2023-04-10T06:40:58.268Z,10.34
2023-04-10T06:42:30.172Z,10.36
2023-04-10T06:44:06.063Z,11.90
2023-04-10T06:45:37.737Z,11.91
2023-04-10T06:47:10.368Z,12.37
2023-04-10T06:48:42.142Z,12.40
2023-04-10T06:50:13.821Z,13.31
2023-04-10T06:51:46.168Z,14.60
2023-04-10T06:53:17.749Z,14.91
2023-04-10T06:54:50.522Z,15.52
2023-04-10T06:56:22.156Z,18.56
2023-04-10T06:57:54.965Z,15.90
2023-04-10T06:59:26.548Z,17.67
2023-04-10T07:00:58.935Z,18.68
2023-04-10T07:02:30.671Z,18.28
2023-04-10T07:04:02.479Z,19.05
2023-04-10T07:05:34.158Z,19.47
2023-04-10T07:07:09.771Z,21.29
2023-04-10T07:08:41.471Z,20.67
2023-04-10T07:10:13.499Z,19.99
2023-04-10T07:11:45.077Z,21.07
2023-04-10T07:13:17.124Z,21.02
2023-04-10T07:14:48.737Z,21.94
2023-04-10T07:16:20.457Z,22.65
2023-04-10T07:17:52.117Z,23.96
2023-04-10T07:19:23.750Z,24.02
2023-04-10T07:20:55.390Z,24.02
2023-04-10T07:22:27.948Z,24.00
2023-04-10T07:23:59.537Z,23.34
2023-04-10T07:25:31.395Z,24.31
2023-04-10T07:27:03.651Z,24.90
2023-04-10T07:28:35.287Z,24.41
2023-04-10T07:30:07.434Z,24.59
2023-04-10T07:31:39.092Z,23.98
2023-04-10T07:33:10.822Z,25.67
2023-04-10T07:34:42.754Z,25.07
2023-04-10T07:36:14.370Z,23.12
2023-04-10T07:37:50.276Z,25.79
2023-04-10T07:39:21.837Z,25.08
2023-04-10T07:40:57.618Z,25.64
2023-04-10T07:42:30.453Z,27.07
2023-04-10T07:44:02.185Z,26.65
2023-04-10T07:45:33.865Z,25.80
2023-04-10T07:47:05.526Z,27.35
2023-04-10T07:48:37.349Z,27.55
2023-04-10T07:50:09.335Z,26.97
2023-04-10T07:51:41.134Z,24.33
2023-04-10T07:53:12.712Z,25.99
2023-04-10T07:54:44.356Z,27.29
2023-04-10T07:56:20.032Z,28.02
2023-04-10T07:57:52.282Z,28.56
2023-04-10T07:59:23.901Z,28.46
2023-04-10T08:00:55.682Z,29.83
2023-04-10T08:02:27.455Z,29.27
2023-04-10T08:03:59.363Z,28.30
2023-04-10T08:05:31.827Z,27.38
2023-04-10T08:07:03.561Z,28.43
2023-04-10T08:08:39.728Z,29.57
2023-04-10T08:10:11.515Z,29.35
2023-04-10T08:11:43.810Z,28.37
2023-04-10T08:13:15.643Z,29.57
2023-04-10T08:14:47.255Z,30.55
2023-04-10T08:16:23.050Z,29.75
2023-04-10T08:17:54.740Z,27.63
2023-04-10T08:19:26.304Z,27.86
2023-04-10T08:20:57.859Z,27.43
2023-04-10T08:22:29.452Z,28.66
2023-04-10T08:24:02.724Z,29.89
2023-04-10T08:25:34.412Z,28.73
2023-04-10T08:27:06.055Z,25.25
2023-04-10T08:28:37.889Z,22.18
2023-04-10T08:30:09.835Z,21.83
2023-04-10T08:31:41.480Z,21.18
2023-04-10T08:33:13.103Z,19.74
2023-04-10T08:34:44.702Z,21.08
2023-04-10T08:36:19.169Z,22.50
2023-04-10T08:38:07.747Z,24.21
2023-04-10T08:39:43.252Z,26.15
2023-04-10T08:41:17.160Z,28.59
2023-04-10T08:42:48.849Z,29.62
2023-04-10T08:44:20.676Z,29.87
2023-04-10T08:45:53.152Z,27.17
2023-04-10T08:47:27.812Z,28.12
2023-04-10T08:49:05.113Z,28.71
2023-04-10T08:50:41.160Z,28.43
2023-04-10T08:52:21.055Z,30.89
2023-04-10T08:53:58.122Z,31.40
2023-04-10T08:55:29.774Z,28.66
2023-04-10T08:57:01.811Z,30.03
2023-04-10T08:58:33.869Z,29.38
2023-04-10T09:00:20.004Z,32.32
2023-04-10T09:01:54.667Z,32.16
2023-04-10T09:03:27.806Z,31.77
2023-04-10T09:05:02.937Z,33.07
2023-04-10T09:06:34.616Z,33.57
2023-04-10T09:08:08.349Z,32.58
2023-04-10T09:09:40.835Z,33.12
2023-04-10T09:11:13.401Z,32.93
2023-04-10T09:12:47.598Z,32.11
2023-04-10T09:14:28.829Z,28.60
2023-04-10T09:16:01.401Z,27.19
2023-04-10T09:17:33.839Z,28.99
2023-04-10T09:19:06.461Z,26.16
2023-04-10T09:20:39.561Z,26.36
2023-04-10T09:22:11.921Z,28.88
2023-04-10T09:23:44.775Z,26.66
2023-04-10T09:25:36.640Z,26.31
2023-04-10T09:27:09.104Z,26.44
2023-04-10T09:29:00.326Z,27.55
2023-04-10T09:30:35.340Z,29.63
2023-04-10T09:32:07.074Z,30.05
2023-04-10T09:34:04.246Z,29.84
2023-04-10T09:35:39.224Z,28.27
2023-04-10T09:37:10.961Z,27.23
2023-04-10T09:38:42.575Z,29.83
2023-04-10T09:40:25.369Z,28.60
2023-04-10T09:41:57.248Z,27.22
2023-04-10T09:43:28.776Z,26.80
2023-04-10T09:45:01.585Z,24.31
2023-04-10T09:46:33.245Z,28.19
2023-04-10T09:48:07.394Z,28.67
2023-04-10T09:49:53.119Z,25.42
2023-04-10T09:51:32.247Z,27.65
2023-04-10T09:53:03.865Z,28.56
2023-04-10T09:54:39.101Z,29.56
2023-04-10T09:56:11.020Z,30.20
2023-04-10T09:57:44.441Z,30.65
2023-04-10T09:59:17.894Z,31.89
2023-04-10T10:00:49.844Z,28.69
2023-04-10T10:02:23.855Z,27.45
2023-04-10T10:03:58.706Z,28.26
2023-04-10T10:05:31.388Z,30.99
2023-04-10T10:07:04.162Z,29.19
2023-04-10T10:08:36.583Z,25.36
2023-04-10T10:10:11.097Z,28.38
2023-04-10T10:11:42.828Z,29.74
2023-04-10T10:13:23.816Z,29.65
2023-04-10T10:15:06.158Z,30.01
2023-04-10T10:16:42.151Z,30.93
2023-04-10T10:18:13.732Z,28.88
2023-04-10T10:20:00.527Z,26.86
2023-04-10T10:21:34.084Z,26.04
2023-04-10T10:23:08.085Z,25.53
2023-04-10T10:24:41.434Z,25.13
2023-04-10T10:26:14.531Z,26.03
2023-04-10T10:27:49.412Z,24.80
2023-04-10T10:29:23.648Z,24.49
2023-04-10T10:30:55.582Z,23.45
2023-04-10T10:32:27.834Z,24.00
2023-04-10T10:34:04.860Z,25.58
2023-04-10T10:37:08.840Z,26.49
2023-04-10T10:38:44.936Z,28.01
2023-04-10T10:40:32.952Z,29.49
2023-04-10T10:42:27.770Z,27.09
2023-04-10T10:44:12.264Z,28.21
2023-04-10T10:45:49.874Z,29.02
2023-04-10T10:47:30.312Z,28.52
2023-04-10T10:49:02.393Z,25.03
2023-04-10T10:50:53.889Z,24.63
2023-04-10T10:52:57.464Z,25.37
2023-04-10T10:54:37.562Z,25.50
2023-04-10T10:56:23.864Z,24.64
2023-04-10T10:57:57.644Z,24.93
2023-04-10T10:59:48.090Z,25.70
2023-04-10T11:01:21.749Z,25.70
2023-04-10T11:03:08.932Z,25.34
2023-04-10T11:04:47.987Z,25.45
2023-04-10T11:06:20.977Z,25.25
2023-04-10T11:07:58.402Z,25.90
2023-04-10T11:09:51.703Z,27.47
2023-04-10T11:11:25.071Z,27.85
2023-04-10T11:13:17.350Z,26.87
2023-04-10T11:15:04.933Z,28.62
2023-04-10T11:16:41.461Z,27.06
2023-04-10T11:18:13.126Z,27.57
2023-04-10T11:19:59.870Z,29.39
2023-04-10T11:21:31.798Z,27.50
2023-04-10T11:23:10.420Z,29.21
2023-04-10T11:24:54.937Z,30.19
2023-04-10T11:26:39.668Z,28.80
2023-04-10T11:28:33.963Z,28.49
2023-04-10T11:30:25.332Z,27.03
2023-04-10T11:31:59.197Z,24.60
2023-04-10T11:33:31.477Z,25.13
2023-04-10T11:35:04.819Z,26.44
2023-04-10T11:36:41.891Z,26.50
2023-04-10T11:38:18.180Z,25.91
2023-04-10T11:40:03.583Z,25.38
2023-04-10T11:41:40.074Z,25.53
2023-04-10T11:43:14.050Z,26.19
2023-04-10T11:44:47.813Z,26.36
2023-04-10T11:46:20.732Z,27.13
2023-04-10T11:47:53.964Z,27.68
2023-04-10T11:49:28.220Z,26.65
2023-04-10T11:51:07.420Z,27.04
2023-04-10T11:52:39.187Z,26.16
2023-04-10T11:54:16.469Z,26.30
2023-04-10T11:55:48.498Z,25.65
2023-04-10T11:57:20.390Z,26.53
2023-04-10T11:58:54.676Z,27.01
2023-04-10T12:00:26.722Z,26.71
2023-04-10T12:02:11.648Z,26.80
2023-04-10T12:03:44.188Z,26.53
2023-04-10T12:05:16.210Z,26.93
2023-04-10T12:06:55.759Z,24.83
2023-04-10T12:08:51.217Z,22.95
2023-04-10T12:10:23.096Z,25.43
2023-04-10T12:12:02.967Z,25.86
2023-04-10T12:13:34.678Z,24.51
2023-04-10T12:15:29.063Z,24.85
2023-04-10T12:17:04.819Z,26.50
2023-04-10T12:18:36.785Z,26.94
2023-04-10T12:20:08.670Z,26.07
2023-04-10T12:21:43.068Z,26.39
2023-04-10T12:23:15.824Z,26.12
2023-04-10T12:24:51.874Z,25.15
2023-04-10T12:26:23.508Z,25.19
2023-04-10T12:27:55.417Z,23.47
2023-04-10T12:29:29.807Z,23.81
2023-04-10T12:31:01.588Z,22.60
2023-04-10T12:32:33.255Z,21.25
2023-04-10T12:34:07.068Z,20.84
2023-04-10T12:35:42.436Z,20.69
2023-04-10T12:37:14.081Z,20.26
2023-04-10T12:38:45.898Z,21.01
2023-04-10T12:40:18.404Z,20.91
2023-04-10T12:41:49.967Z,20.93
2023-04-10T12:43:33.559Z,20.39
2023-04-10T12:45:05.624Z,19.92
2023-04-10T12:46:37.788Z,20.37
2023-04-10T12:48:09.428Z,20.08
2023-04-10T12:49:41.056Z,20.32
2023-04-10T12:51:12.566Z,20.59
2023-04-10T12:52:45.984Z,20.92
2023-04-10T12:54:31.946Z,21.24
2023-04-10T12:56:06.502Z,21.12
2023-04-10T12:57:38.875Z,21.24
2023-04-10T12:59:10.725Z,21.32
2023-04-10T13:00:42.286Z,21.18
2023-04-10T13:02:14.090Z,21.21
2023-04-10T13:03:48.346Z,21.14
2023-04-10T13:05:21.648Z,21.60
2023-04-10T13:06:53.479Z,21.13
2023-04-10T13:08:26.104Z,20.76
2023-04-10T13:09:58.773Z,21.39
2023-04-10T13:11:30.522Z,21.68
2023-04-10T13:13:02.485Z,21.58
2023-04-10T13:14:34.063Z,21.25
2023-04-10T13:16:06.475Z,20.08
2023-04-10T13:17:38.279Z,19.76
2023-04-10T13:19:09.945Z,20.78
2023-04-10T13:20:41.982Z,20.44
2023-04-10T13:22:13.620Z,20.94
2023-04-10T13:23:47.002Z,21.67
2023-04-10T13:25:18.589Z,21.70
2023-04-10T13:26:50.270Z,22.34
2023-04-10T13:28:21.863Z,22.30
2023-04-10T13:29:53.419Z,22.68
2023-04-10T13:31:25.071Z,22.59
2023-04-10T13:32:56.856Z,22.33
2023-04-10T13:34:28.458Z,21.25
2023-04-10T13:36:00.191Z,21.36
2023-04-10T13:37:32.027Z,21.90
2023-04-10T13:39:03.670Z,22.04
2023-04-10T13:40:35.281Z,21.35
2023-04-10T13:42:06.881Z,21.77
2023-04-10T13:43:38.496Z,21.29
2023-04-10T13:45:10.515Z,21.15
2023-04-10T13:46:42.160Z,21.35
2023-04-10T13:48:16.065Z,21.27
2023-04-10T13:49:48.188Z,21.22
2023-04-10T13:51:19.789Z,21.30
2023-04-10T13:52:53.408Z,21.05
2023-04-10T13:54:26.483Z,20.31
2023-04-10T13:55:58.107Z,19.62
2023-04-10T13:57:29.862Z,19.64
2023-04-10T13:59:01.625Z,20.12
2023-04-10T14:00:33.314Z,20.32
2023-04-10T14:02:05.034Z,20.67
2023-04-10T14:03:36.718Z,20.54
2023-04-10T14:05:08.938Z,20.54
2023-04-10T14:06:40.782Z,20.09
2023-04-10T14:08:14.761Z,20.05
2023-04-10T14:09:47.117Z,19.62
2023-04-10T14:11:18.732Z,19.46
2023-04-10T14:12:50.533Z,19.04
2023-04-10T14:14:25.096Z,19.13
2023-04-10T14:15:56.756Z,19.75
2023-04-10T14:17:28.414Z,20.17
2023-04-10T14:19:00.161Z,20.26
2023-04-10T14:20:31.927Z,20.25
2023-04-10T14:22:03.541Z,20.45
2023-04-10T14:23:36.276Z,20.47
2023-04-10T14:25:13.647Z,20.31
2023-04-10T14:26:45.597Z,19.90
2023-04-10T14:28:19.907Z,20.06
2023-04-10T14:29:55.018Z,20.19
2023-04-10T14:31:29.452Z,20.16
2023-04-10T14:33:01.328Z,20.01
2023-04-10T14:34:33.183Z,20.14
2023-04-10T14:36:05.363Z,20.04
2023-04-10T14:37:37.331Z,20.14
2023-04-10T14:39:08.925Z,20.08
2023-04-10T14:40:45.734Z,20.12
2023-04-10T14:42:17.333Z,20.20
2023-04-10T14:43:48.902Z,20.24
2023-04-10T14:45:20.557Z,19.43
2023-04-10T14:46:52.303Z,19.74
2023-04-10T14:48:23.991Z,19.66
2023-04-10T14:49:55.636Z,19.88
2023-04-10T14:51:27.770Z,19.94
2023-04-10T14:53:00.699Z,19.95
2023-04-10T14:54:32.561Z,20.07
2023-04-10T14:56:11.118Z,20.03
2023-04-10T14:57:42.697Z,20.00
2023-04-10T14:59:14.329Z,20.03
2023-04-10T15:00:46.783Z,20.01
2023-04-10T15:02:18.424Z,20.05
2023-04-10T15:03:50.189Z,19.98
2023-04-10T15:05:23.038Z,19.87
2023-04-10T15:06:54.685Z,19.83
2023-04-10T15:08:26.339Z,19.67
2023-04-10T15:09:58.376Z,19.47
2023-04-10T15:11:29.927Z,19.54
2023-04-10T15:13:01.516Z,19.63
2023-04-10T15:14:33.212Z,19.70
2023-04-10T15:16:06.174Z,19.61
2023-04-10T15:17:37.768Z,19.42
2023-04-10T15:19:09.396Z,19.19
2023-04-10T15:20:41.086Z,19.44
2023-04-10T15:22:12.756Z,19.45
2023-04-10T15:23:44.818Z,19.54
2023-04-10T15:25:16.453Z,19.54
2023-04-10T15:26:48.012Z,19.48
2023-04-10T15:28:19.654Z,19.40
2023-04-10T15:29:51.337Z,19.36
2023-04-10T15:31:23.944Z,19.49
2023-04-10T15:32:55.630Z,19.55
2023-04-10T15:34:27.443Z,19.61
2023-04-10T15:35:59.203Z,19.46
2023-04-10T15:37:30.893Z,19.29
2023-04-10T15:39:05.292Z,19.35
2023-04-10T15:40:36.998Z,19.30
2023-04-10T15:42:08.820Z,19.19
2023-04-10T15:43:42.459Z,19.38
2023-04-10T15:45:14.118Z,19.39
2023-04-10T15:46:47.210Z,19.34
2023-04-10T15:48:18.996Z,19.39
2023-04-10T15:49:50.595Z,19.34
2023-04-10T15:51:22.302Z,19.20
2023-04-10T15:52:54.276Z,19.27
2023-04-10T15:54:25.866Z,19.15
2023-04-10T15:55:57.718Z,19.11
2023-04-10T15:57:29.330Z,18.95
2023-04-10T15:59:01.076Z,18.89
2023-04-10T16:00:32.683Z,18.87
2023-04-10T16:02:04.555Z,18.82
2023-04-10T16:03:36.576Z,18.70
2023-04-10T16:05:09.306Z,18.69
2023-04-10T16:06:41.292Z,18.75
2023-04-10T16:08:12.977Z,18.67
2023-04-10T16:09:47.498Z,18.65
2023-04-10T16:11:19.338Z,18.62
2023-04-10T16:12:51.073Z,18.73
2023-04-10T16:14:22.879Z,18.66
2023-04-10T16:15:54.539Z,18.61
2023-04-10T16:17:26.268Z,18.59
2023-04-10T16:18:59.759Z,18.55
2023-04-10T16:20:32.504Z,18.41
2023-04-10T16:22:04.134Z,18.35
2023-04-10T16:23:35.810Z,18.30
2023-04-10T16:25:07.979Z,18.30
2023-04-10T16:26:39.737Z,18.38
2023-04-10T16:28:11.380Z,18.38
2023-04-10T16:29:43.870Z,18.31
2023-04-10T16:31:15.629Z,18.25
2023-04-10T16:32:47.708Z,18.11
2023-04-10T16:34:19.498Z,18.05
2023-04-10T16:35:51.275Z,18.17
2023-04-10T16:37:22.948Z,18.20
2023-04-10T16:38:54.880Z,18.10
2023-04-10T16:40:32.711Z,18.11
2023-04-10T16:42:05.354Z,18.12
2023-04-10T16:43:37.007Z,18.05
2023-04-10T16:45:09.496Z,17.98
2023-04-10T16:46:41.174Z,17.83
2023-04-10T16:48:12.823Z,17.72
2023-04-10T16:49:45.969Z,17.70
2023-04-10T16:51:17.875Z,17.69
2023-04-10T16:52:49.714Z,17.76
2023-04-10T16:54:21.490Z,17.73
2023-04-10T16:56:01.047Z,17.50
2023-04-10T16:57:35.646Z,17.49
2023-04-10T16:59:07.439Z,17.40
2023-04-10T17:00:39.236Z,17.45
2023-04-10T17:02:10.923Z,17.42
2023-04-10T17:03:46.076Z,17.34
2023-04-10T17:05:18.057Z,17.30
2023-04-10T17:06:49.861Z,17.22
2023-04-10T17:08:21.547Z,17.09
2023-04-10T17:09:53.242Z,17.12
2023-04-10T17:11:24.966Z,17.06
2023-04-10T17:12:57.116Z,17.04
2023-04-10T17:14:29.179Z,17.01
2023-04-10T17:16:01.347Z,16.92
2023-04-10T17:17:34.335Z,16.81
2023-04-10T17:19:06.436Z,16.74
2023-04-10T17:20:38.226Z,16.79
2023-04-10T17:22:18.548Z,16.91
2023-04-10T17:23:50.332Z,16.73
2023-04-10T17:25:21.987Z,16.74
2023-04-10T17:26:53.704Z,16.69
2023-04-10T17:28:25.397Z,16.62
2023-04-10T17:29:57.153Z,16.60
2023-04-10T17:31:29.011Z,16.60
2023-04-10T17:33:01.028Z,16.57
2023-04-10T17:34:33.376Z,16.39
2023-04-10T17:36:05.519Z,16.30
2023-04-10T17:37:37.597Z,16.31
2023-04-10T17:39:09.756Z,16.23
2023-04-10T17:40:42.002Z,16.14
2023-04-10T17:42:13.911Z,16.27
2023-04-10T17:43:45.608Z,16.15
2023-04-10T17:45:17.301Z,16.06
2023-04-10T17:46:49.139Z,16.00
2023-04-10T17:48:21.364Z,15.91
2023-04-10T17:49:53.096Z,16.14
2023-04-10T17:51:24.699Z,15.92
2023-04-10T17:52:56.354Z,15.81
2023-04-10T17:54:28.029Z,15.68
2023-04-10T17:56:01.837Z,15.73
2023-04-10T17:57:33.711Z,15.70
2023-04-10T17:59:05.559Z,15.78
2023-04-10T18:00:37.443Z,15.61
2023-04-10T18:02:09.555Z,15.63
2023-04-10T18:03:41.603Z,15.51
2023-04-10T18:05:13.842Z,15.52
2023-04-10T18:06:45.558Z,15.40
2023-04-10T18:08:17.175Z,15.40
2023-04-10T18:09:48.932Z,15.37
2023-04-10T18:11:20.579Z,15.40
2023-04-10T18:12:52.919Z,15.44
2023-04-10T18:14:24.546Z,15.46
2023-04-10T18:15:56.341Z,15.44
2023-04-10T18:17:28.083Z,15.34
2023-04-10T18:18:59.745Z,15.14
2023-04-10T18:20:31.449Z,15.12
2023-04-10T18:22:08.918Z,15.09
2023-04-10T18:23:40.595Z,15.12
2023-04-10T18:25:12.255Z,15.09
2023-04-10T18:26:45.202Z,14.88
2023-04-10T18:28:18.676Z,14.80
2023-04-10T18:29:51.626Z,14.90
2023-04-10T18:31:23.556Z,14.87
2023-04-10T18:32:55.366Z,14.72
2023-04-10T18:34:27.143Z,14.88
2023-04-10T18:35:59.118Z,14.77
2023-04-10T18:37:31.082Z,14.71
2023-04-10T18:39:04.375Z,14.66
2023-04-10T18:40:37.005Z,14.63
2023-04-10T18:42:12.243Z,14.45
2023-04-10T18:43:51.264Z,14.40
2023-04-10T18:45:34.972Z,14.46
2023-04-10T18:47:06.731Z,14.55
2023-04-10T18:48:46.987Z,14.54
2023-04-10T18:50:18.920Z,14.53
2023-04-10T18:51:50.573Z,14.53
2023-04-10T18:53:22.510Z,14.56
2023-04-10T18:54:54.329Z,14.61
2023-04-10T18:56:26.101Z,14.64
2023-04-10T18:57:57.905Z,14.82
2023-04-10T18:59:29.794Z,14.75
2023-04-10T19:01:01.481Z,14.82
2023-04-10T19:02:33.656Z,14.78
2023-04-10T19:04:06.278Z,14.64
2023-04-10T19:05:38.233Z,14.57
2023-04-10T19:07:10.188Z,14.52
2023-04-10T19:08:41.866Z,14.47
2023-04-10T19:10:13.548Z,14.46
2023-04-10T19:11:45.175Z,14.40
2023-04-10T19:13:16.843Z,14.53
2023-04-10T19:14:48.554Z,14.43
2023-04-10T19:16:20.508Z,14.40
2023-04-10T19:17:53.797Z,14.42
2023-04-10T19:19:25.468Z,14.45
2023-04-10T19:20:57.279Z,14.33
2023-04-10T19:22:32.897Z,14.31
2023-04-10T19:24:04.946Z,14.24
2023-04-10T19:25:36.707Z,14.17
2023-04-10T19:27:08.568Z,14.12
2023-04-10T19:28:40.545Z,14.11
2023-04-10T19:30:13.099Z,14.07
2023-04-10T19:31:45.132Z,14.01
2023-04-10T19:33:17.399Z,14.01
2023-04-10T19:34:51.361Z,14.06
2023-04-10T19:36:23.194Z,13.89
2023-04-10T19:37:58.159Z,13.92
2023-04-10T19:39:29.894Z,14.05
2023-04-10T19:41:01.654Z,13.90
2023-04-10T19:42:36.261Z,13.85
2023-04-10T19:44:08.722Z,13.83
2023-04-10T19:45:40.384Z,13.82
2023-04-10T19:47:12.078Z,13.82
2023-04-10T19:48:43.930Z,13.77
2023-04-10T19:50:15.567Z,13.75
2023-04-10T19:51:47.314Z,13.66
2023-04-10T19:53:19.110Z,13.69
2023-04-10T19:54:50.953Z,13.61
2023-04-10T19:56:22.777Z,13.58
2023-04-10T19:57:54.967Z,13.81
2023-04-10T19:59:26.689Z,13.79
2023-04-10T20:01:06.337Z,13.70
2023-04-10T20:02:38.352Z,13.57
2023-04-10T20:04:10.313Z,13.76
2023-04-10T20:05:42.620Z,13.62
2023-04-10T20:07:14.418Z,13.66
2023-04-10T20:08:46.092Z,13.82
2023-04-10T20:10:17.802Z,13.73
2023-04-10T20:11:49.416Z,13.96
2023-04-10T20:13:21.875Z,13.98
2023-04-10T20:14:53.580Z,14.03
2023-04-10T20:16:26.754Z,14.20
2023-04-10T20:17:58.768Z,14.08
2023-04-10T20:19:30.507Z,14.11
2023-04-10T20:21:02.153Z,14.26
2023-04-10T20:22:33.893Z,14.18
2023-04-10T20:24:05.614Z,14.13
2023-04-10T20:25:38.168Z,14.16
2023-04-10T20:27:09.813Z,14.05
2023-04-10T20:28:41.491Z,14.06
2023-04-10T20:30:13.103Z,14.12
2023-04-10T20:31:44.919Z,14.07
2023-04-10T20:33:16.615Z,14.11
2023-04-10T20:34:48.279Z,14.08
2023-04-10T20:36:20.222Z,14.01
2023-04-10T20:37:52.282Z,14.02